Terminal Aerodrome Forecast
Issued by NWS Milwaukee/Sullivan, WI

Home | Current Version | Previous Version | Text Only | Print | Product List | Glossary On
Versions: 1 2 3 4 5 6 7 8 9 10 11 12 13 14 15 16 17 18 19 20 21 22 23 24 25 26 27 28 29 30 31 32
000
FTUS43 KMKX 180525
TAFMSN
TAF
KMSN 180525Z 1806/1906 35004KT 2SM BR VCSH OVC004
      TEMPO 1807/1809 -RA
     FM180900 01007KT 3SM BR VCSH OVC003
     FM181100 01009KT 4SM -RA BR OVC008
     FM181400 36012G21KT 3SM -RASN OVC008
     FM181700 34014G24KT P6SM OVC025
     FM182000 33015G26KT P6SM BKN035=

USA.gov is the U.S. government's official web portal to all federal, state and local government web resources and services.